EHGG/GRQ METAR and TAF weather

Enter ICAO airport designator
Station Type Date Time Source
EHGG METAR 2019/02/23 22:55 UTC NOAA

EHGG 232255Z AUTO 11003KT 080V140 7000 NCD 00/M01 Q1037


Station Type Date Time Source
EHGG Decoded METAR 2019/02/23 22:55 UTC NOAA

Groningen Airport Eelde, Netherlands (EHGG) 53-08N 006-35E 4M
Feb 23, 2019 - 05:55 PM EST / 2019.02.23 2255 UTC
Wind: from the ESE (110 degrees) at 3 MPH (3 KT) (direction variable):0
Visibility: 4 mile(s):0
Temperature: 32 F (0 C)
Dew Point: 30 F (-1 C)
Relative Humidity: 92%
Pressure (altimeter): 30.62 in. Hg (1037 hPa)
ob: EHGG 232255Z AUTO 11003KT 080V140 7000 NCD 00/M01 Q1037
cycle: 23

Station Type Date Time Source
EHGG TAF 2019/02/23 18:27 UTC NOAA

TAF EHGG 231707Z 2318/2424 15005KT CAVOK PROB30 2401/2409 7000 PROB40 2421/2424 5000 MIFG


Example: see airport list